Terminal Aerodrome Forecast
Issued by NWS

Home | Current Version | Previous Version | Graphics & Text | Print | Product List | Glossary On
Versions: 1 2 3 4 5 6 7 8 9 10 11 12 13 14 15 16
000
FTUS43 KICT 121100
TAFCNU
TAF
KCNU 121134Z 1212/1312 02011KT P6SM SCT009 OVC015
     FM121700 01013G19KT P6SM VCSH SCT009 OVC015
     FM130100 01011KT P6SM SCT015=

USA.gov is the U.S. government's official web portal to all federal, state and local government web resources and services.